Time;durP1;ratioP1;P1;durP2;ratioP2;P2;SDS_P1;SDS_P2;PMS_P1;PMS_P2;Temp;Humidity;BMP_temperature;BMP_pressure;BME280_temperature;BME280_humidity;BME280_pressure;Samples;Min_cycle;Max_cycle;Signal;HPM_P1;HPM_P2
2021/06/15 00:01:15;;;;;;;8.13;3.20;;;;;;;13.41;100.00;94107.47;5135540;27;20379;-77
2021/06/15 00:03:41;;;;;;;5.37;3.03;;;;;;;13.42;100.00;94105.66;5135661;27;20215;-77
2021/06/15 00:06:08;;;;;;;9.40;2.90;;;;;;;13.40;100.00;94107.69;5135065;27;20192;-77
2021/06/15 00:08:36;;;;;;;9.17;2.90;;;;;;;13.49;100.00;94106.44;5135251;27;20541;-77
2021/06/15 00:11:06;;;;;;;8.27;2.80;;;;;;;13.48;100.00;94096.97;5135137;27;20208;-78
2021/06/15 00:13:34;;;;;;;6.70;3.10;;;;;;;13.51;100.00;94099.16;5135398;27;20257;-77
2021/06/15 00:16:00;;;;;;;8.57;2.83;;;;;;;13.48;100.00;94103.00;5135290;27;20273;-77
2021/06/15 00:18:28;;;;;;;4.03;2.83;;;;;;;13.44;100.00;94093.94;5135176;27;20200;-77
2021/06/15 00:20:55;;;;;;;9.33;3.13;;;;;;;13.49;100.00;94103.81;5135032;27;20193;-76
2021/06/15 00:23:25;;;;;;;6.20;3.00;;;;;;;13.50;100.00;94094.91;5133957;27;20436;-78
2021/06/15 00:25:51;;;;;;;4.10;2.90;;;;;;;13.48;100.00;94096.97;5134713;27;20229;-77
2021/06/15 00:28:19;;;;;;;5.57;3.00;;;;;;;13.38;100.00;94097.41;5135106;27;20207;-76
2021/06/15 00:30:47;;;;;;;7.97;2.80;;;;;;;13.42;100.00;94092.53;5134831;27;20814;-77
2021/06/15 00:33:14;;;;;;;10.30;3.27;;;;;;;13.56;100.00;94088.84;5134960;27;20196;-78
2021/06/15 00:35:40;;;;;;;4.37;2.87;;;;;;;13.42;100.00;94092.53;5134770;27;20208;-77
2021/06/15 00:38:08;;;;;;;5.10;2.93;;;;;;;13.42;100.00;94096.00;5134649;27;20200;-76
2021/06/15 00:40:35;;;;;;;16.07;4.07;;;;;;;13.44;100.00;94096.56;5134642;27;20589;-77
2021/06/15 00:43:04;;;;;;;5.17;3.17;;;;;;;13.46;100.00;94085.88;5134452;27;20656;-76
2021/06/15 00:45:32;;;;;;;8.90;3.50;;;;;;;13.47;100.00;94085.66;5134746;27;20279;-77
2021/06/15 00:48:00;;;;;;;11.90;3.20;;;;;;;13.44;100.00;94087.88;5133927;27;20291;-76
2021/06/15 00:50:28;;;;;;;3.97;2.90;;;;;;;13.33;100.00;94090.16;5134431;27;20284;-77
2021/06/15 00:52:55;;;;;;;5.20;2.93;;;;;;;13.37;100.00;94085.28;5134415;27;20224;-76
2021/06/15 00:55:22;;;;;;;6.13;3.30;;;;;;;13.41;100.00;94077.84;5134189;27;20209;-76
2021/06/15 00:57:49;;;;;;;6.27;3.33;;;;;;;13.42;100.00;94072.38;5134147;27;20224;-77
2021/06/15 01:00:17;;;;;;;4.63;2.90;;;;;;;13.36;100.00;94082.91;5134539;27;20644;-77
2021/06/15 01:02:44;;;;;;;7.13;3.10;;;;;;;13.32;100.00;94083.31;5134358;27;20559;-76
2021/06/15 01:05:15;;;;;;;8.13;3.33;;;;;;;13.26;100.00;94078.88;5134175;27;20249;-77
2021/06/15 01:07:54;;;;;;;3.60;2.80;;;;;;;13.19;100.00;94083.34;5134527;27;20193;-76
2021/06/15 01:10:35;;;;;;;5.80;3.23;;;;;;;13.27;100.00;94080.50;5134405;27;20200;-76
2021/06/15 01:13:11;;;;;;;12.43;3.60;;;;;;;13.32;100.00;94082.50;5134197;27;20283;-76
2021/06/15 01:15:43;;;;;;;7.23;2.83;;;;;;;13.42;100.00;94067.13;5134134;27;20206;-75
2021/06/15 01:18:13;;;;;;;7.00;2.73;;;;;;;13.33;100.00;94069.19;5134159;27;20224;-76
2021/06/15 01:20:45;;;;;;;6.30;2.70;;;;;;;13.41;100.00;94072.59;5134207;27;20201;-77
2021/06/15 01:23:33;;;;;;;7.73;2.93;;;;;;;13.36;100.00;94067.19;5134036;27;20671;-77
2021/06/15 01:26:17;;;;;;;5.60;3.00;;;;;;;13.20;100.00;94063.97;5133749;27;20243;-76
2021/06/15 01:28:49;;;;;;;7.40;3.10;;;;;;;13.19;100.00;94059.75;5134015;27;20654;-76
2021/06/15 01:31:23;;;;;;;13.03;3.87;;;;;;;13.18;100.00;94065.22;5134152;27;20287;-76
2021/06/15 01:33:53;;;;;;;5.33;2.90;;;;;;;13.16;100.00;94070.66;5133702;27;20201;-77
2021/06/15 01:36:26;;;;;;;6.43;3.10;;;;;;;13.05;100.00;94071.31;5133762;27;20204;-76
2021/06/15 01:38:56;;;;;;;5.03;2.93;;;;;;;13.01;100.00;94075.38;5133874;27;20200;-76
2021/06/15 01:41:27;;;;;;;4.87;3.37;;;;;;;12.96;100.00;94066.31;5134019;28;20209;-76
2021/06/15 01:44:05;;;;;;;11.90;3.47;;;;;;;12.98;100.00;94066.09;5133881;28;20201;-76
2021/06/15 01:46:39;;;;;;;8.57;3.42;;;;;;;13.07;100.00;94071.91;5133016;28;20434;-75
2021/06/15 01:49:10;;;;;;;11.07;3.50;;;;;;;13.00;100.00;94058.03;5133585;28;20666;-76
2021/06/15 01:51:38;;;;;;;7.43;3.80;;;;;;;12.85;100.00;94058.28;5133937;28;20200;-77
2021/06/15 01:54:09;;;;;;;5.93;3.20;;;;;;;12.78;100.00;94061.72;5133785;28;20193;-76
2021/06/15 01:56:41;;;;;;;7.63;3.57;;;;;;;12.78;100.00;94053.06;5133482;28;20220;-76
2021/06/15 01:59:11;;;;;;;5.67;3.23;;;;;;;12.71;100.00;94053.09;5137025;27;20207;-77
2021/06/15 02:01:45;;;;;;;8.93;3.40;;;;;;;12.66;100.00;94049.50;5137598;27;20200;-78
2021/06/15 02:04:13;;;;;;;4.70;2.90;;;;;;;12.68;100.00;94045.63;5137966;27;20205;-77
2021/06/15 02:06:44;;;;;;;5.93;3.27;;;;;;;12.71;100.00;94054.91;5137760;27;20197;-79
2021/06/15 02:09:12;;;;;;;6.87;3.40;;;;;;;12.66;100.00;94057.34;5137669;27;20256;-78
2021/06/15 02:11:41;;;;;;;6.87;3.60;;;;;;;12.78;100.00;94045.22;5137629;27;20586;-77
2021/06/15 02:14:17;;;;;;;7.87;3.67;;;;;;;12.85;100.00;94047.81;5137390;27;20193;-77
2021/06/15 02:16:46;;;;;;;6.50;3.17;;;;;;;12.80;100.00;94048.41;5137720;27;20224;-77
2021/06/15 02:19:14;;;;;;;5.20;3.47;;;;;;;12.62;100.00;94048.28;5137539;27;20228;-77
2021/06/15 02:21:45;;;;;;;8.00;3.70;;;;;;;12.46;100.00;94049.53;5137306;27;20567;-77
2021/06/15 02:24:12;;;;;;;8.13;3.80;;;;;;;12.38;100.00;94051.34;5137405;27;20624;-77
2021/06/15 02:26:44;;;;;;;10.23;3.70;;;;;;;12.45;100.00;94048.72;5137239;27;20285;-77
2021/06/15 02:29:18;;;;;;;9.65;3.92;;;;;;;12.43;100.00;94053.38;5136159;27;20425;-76
2021/06/15 02:31:52;;;;;;;11.27;3.90;;;;;;;12.40;100.00;94048.53;5137506;27;20246;-78
2021/06/15 02:34:21;;;;;;;6.50;3.50;;;;;;;12.45;100.00;94051.34;5137294;27;20193;-77
2021/06/15 02:36:51;;;;;;;8.63;3.20;;;;;;;12.61;100.00;94046.66;5136991;27;20228;-77
2021/06/15 02:39:23;;;;;;;6.43;3.10;;;;;;;12.58;100.00;94045.28;5137335;27;20216;-76
2021/06/15 02:41:52;;;;;;;6.03;3.30;;;;;;;12.46;100.00;94049.53;5137250;27;20200;-77
2021/06/15 02:44:24;;;;;;;8.53;3.20;;;;;;;12.35;100.00;94056.19;5137033;27;20285;-77
2021/06/15 02:46:57;;;;;;;7.73;3.60;;;;;;;12.16;100.00;94053.41;5137059;27;20271;-77
2021/06/15 02:49:27;;;;;;;8.27;3.80;;;;;;;12.01;100.00;94056.22;5136767;27;20295;-76
2021/06/15 02:51:59;;;;;;;9.97;3.60;;;;;;;11.89;100.00;94054.38;5137098;27;20220;-77
2021/06/15 02:54:30;;;;;;;9.93;3.90;;;;;;;11.85;100.00;94049.56;5136533;27;20201;-77
2021/06/15 02:56:58;;;;;;;14.80;3.93;;;;;;;11.98;100.00;94050.59;5137001;27;20216;-77
2021/06/15 02:59:27;;;;;;;8.83;3.53;;;;;;;11.94;100.00;94049.38;5136855;27;20292;-78
2021/06/15 03:01:55;;;;;;;9.33;4.47;;;;;;;11.85;100.00;94046.13;5136489;27;20733;-78
2021/06/15 03:04:22;;;;;;;8.67;3.80;;;;;;;11.79;100.00;94049.56;5137042;27;20197;-78
2021/06/15 03:06:49;;;;;;;4.97;3.57;;;;;;;11.78;100.00;94051.38;5136713;27;20205;-77
2021/06/15 03:09:15;;;;;;;8.97;3.77;;;;;;;11.68;100.00;94053.59;5135742;27;20219;-78
2021/06/15 03:11:47;;;;;;;6.78;3.63;;;;;;;11.77;100.00;94049.75;5135433;27;20520;-77
2021/06/15 03:14:18;;;;;;;9.20;4.20;;;;;;;11.84;100.00;94050.56;5136509;27;20200;-77
2021/06/15 03:16:51;;;;;;;9.97;3.40;;;;;;;11.92;100.00;94054.03;5136267;27;20199;-79
2021/06/15 03:19:23;;;;;;;10.70;3.97;;;;;;;11.92;100.00;94048.78;5136357;27;20667;-78
2021/06/15 03:21:56;;;;;;;8.20;3.30;;;;;;;11.83;100.00;94046.34;5136353;27;20201;-77
2021/06/15 03:24:24;;;;;;;5.27;3.43;;;;;;;11.87;100.00;94048.56;5135982;27;20233;-78
2021/06/15 03:26:59;;;;;;;7.33;3.77;;;;;;;11.81;100.00;94058.81;5136167;27;20609;-78
2021/06/15 03:29:30;;;;;;;9.97;4.00;;;;;;;11.76;100.00;94047.38;5136361;27;20200;-78
2021/06/15 03:32:02;;;;;;;5.30;3.60;;;;;;;11.79;100.00;94047.75;5135773;27;20208;-77
2021/06/15 03:34:33;;;;;;;7.37;3.80;;;;;;;11.68;100.00;94050.97;5135962;27;20196;-78
2021/06/15 03:37:00;;;;;;;8.67;3.50;;;;;;;11.66;100.00;94053.00;5135917;27;20587;-78
2021/06/15 03:39:31;;;;;;;9.50;3.83;;;;;;;11.70;100.00;94046.34;5135888;27;20281;-77
2021/06/15 03:42:05;;;;;;;12.07;3.97;;;;;;;11.77;100.00;94044.50;5135938;27;20201;-77
2021/06/15 03:44:37;;;;;;;6.60;3.93;;;;;;;11.77;100.00;94049.75;5135986;27;20200;-77
2021/06/15 03:47:06;;;;;;;9.17;4.10;;;;;;;11.69;100.00;94047.34;5135935;27;20197;-78
2021/06/15 03:49:34;;;;;;;8.93;3.70;;;;;;;11.72;100.00;94051.38;5135824;27;20656;-77
2021/06/15 03:52:07;;;;;;;6.83;4.17;;;;;;;11.75;100.00;94056.22;5135490;27;20205;-77
2021/06/15 03:54:34;;;;;;;9.50;4.40;;;;;;;11.75;100.00;94056.22;5134347;27;20478;-77
2021/06/15 03:57:02;;;;;;;9.97;3.87;;;;;;;11.78;100.00;94056.59;5135568;27;20242;-76
2021/06/15 03:59:32;;;;;;;8.17;3.77;;;;;;;11.87;100.00;94051.16;5135643;27;20287;-77
2021/06/15 04:02:05;;;;;;;6.23;3.47;;;;;;;11.82;100.00;94054.38;5135575;27;20205;-77
2021/06/15 04:04:36;;;;;;;12.37;3.33;;;;;;;11.82;100.00;94057.84;5135418;27;20608;-79
2021/06/15 04:07:06;;;;;;;8.53;3.87;;;;;;;11.80;100.00;94061.63;5135576;27;20206;-76
2021/06/15 04:09:37;;;;;;;8.23;3.87;;;;;;;11.84;100.00;94052.41;5135438;27;20197;-76
2021/06/15 04:12:05;;;;;;;5.57;3.87;;;;;;;11.91;100.00;94062.88;5135349;27;20200;-77
2021/06/15 04:14:35;;;;;;;7.70;3.60;;;;;;;11.88;100.00;94063.25;5135309;27;20196;-77
2021/06/15 04:17:10;;;;;;;5.83;3.90;;;;;;;11.92;100.00;94061.88;5135282;27;20196;-78
2021/06/15 04:19:43;;;;;;;7.90;3.40;;;;;;;12.01;100.00;94060.66;5135396;27;20231;-78
2021/06/15 04:22:13;;;;;;;9.17;3.50;;;;;;;12.06;100.00;94062.66;5135033;27;20548;-77
2021/06/15 04:24:44;;;;;;;9.37;3.80;;;;;;;12.09;100.00;94072.72;5134901;27;20240;-77
2021/06/15 04:27:10;;;;;;;5.70;2.83;;;;;;;12.16;100.00;94069.09;5134984;27;20197;-77
2021/06/15 04:29:37;;;;;;;6.37;3.60;;;;;;;12.24;100.00;94064.66;5135031;27;20197;-77
2021/06/15 04:32:09;;;;;;;8.70;3.60;;;;;;;12.29;100.00;94067.47;5134846;27;20734;-77
2021/06/15 04:34:44;;;;;;;6.80;3.55;;;;;;;12.39;100.00;94065.28;5134032;27;20433;-78
2021/06/15 04:37:14;;;;;;;11.37;3.40;;;;;;;12.45;100.00;94067.06;5134760;27;20200;-79
2021/06/15 04:39:48;;;;;;;10.37;3.77;;;;;;;12.53;100.00;94066.84;5134645;27;20220;-77
2021/06/15 04:42:18;;;;;;;9.57;3.37;;;;;;;12.61;100.00;94060.56;5134941;27;20211;-77
2021/06/15 04:44:48;;;;;;;5.33;3.00;;;;;;;12.73;100.00;94066.00;5134681;27;20205;-77
2021/06/15 04:47:19;;;;;;;6.93;3.53;;;;;;;12.84;100.00;94060.13;5134453;27;20196;-77
2021/06/15 04:50:00;;;;;;;9.00;3.43;;;;;;;12.94;100.00;94060.47;5134563;27;20237;-77
2021/06/15 04:52:28;;;;;;;9.63;3.50;;;;;;;13.09;100.00;94062.00;5134426;27;20204;-76
2021/06/15 04:54:57;;;;;;;7.50;3.30;;;;;;;13.23;100.00;94057.53;5134599;27;20196;-77
2021/06/15 04:57:27;;;;;;;4.53;3.10;;;;;;;13.28;100.00;94068.19;5134417;27;20208;-77
2021/06/15 04:59:59;;;;;;;8.87;3.00;;;;;;;13.41;100.00;94067.34;5133629;27;20200;-76
2021/06/15 05:02:29;;;;;;;8.90;2.93;;;;;;;13.48;100.00;94066.28;5134471;27;20193;-76
2021/06/15 05:04:57;;;;;;;10.23;3.07;;;;;;;13.65;100.00;94066.56;5134052;27;20228;-77
2021/06/15 05:07:25;;;;;;;13.07;3.40;;;;;;;13.85;100.00;94073.50;5134470;27;20656;-77
2021/06/15 05:09:55;;;;;;;4.63;2.80;;;;;;;14.01;100.00;94075.63;5134339;27;20555;-77
2021/06/15 05:12:23;;;;;;;4.77;2.43;;;;;;;14.06;100.00;94078.41;5134218;27;20209;-77
2021/06/15 05:14:50;;;;;;;8.90;2.57;;;;;;;14.17;100.00;94071.66;5134182;27;20209;-77
2021/06/15 05:17:20;;;;;;;5.55;2.42;;;;;;;14.40;100.00;94078.09;5133300;27;20432;-77
2021/06/15 05:19:47;;;;;;;8.20;2.37;;;;;;;14.64;98.99;94078.31;5134332;27;20295;-77
2021/06/15 05:22:24;;;;;;;3.30;2.45;;;;;;;14.92;98.64;94076.00;5134188;27;20193;-78
2021/06/15 05:25:02;;;;;;;4.82;2.47;;;;;;;15.11;98.36;94079.41;5133846;27;20228;-77
2021/06/15 05:27:31;;;;;;;5.00;2.30;;;;;;;15.29;99.73;94080.44;5134132;27;20231;-77
2021/06/15 05:30:00;;;;;;;4.80;2.67;;;;;;;15.53;99.82;94082.09;5133921;27;20193;-77
2021/06/15 05:32:26;;;;;;;9.70;2.80;;;;;;;15.80;97.08;94080.97;5133567;27;20232;-77
2021/06/15 05:34:58;;;;;;;6.78;2.67;;;;;;;16.05;92.95;94076.34;5134084;27;20232;-77
2021/06/15 05:37:27;;;;;;;6.40;2.35;;;;;;;16.54;94.20;94078.78;5133918;27;20279;-78
2021/06/15 05:39:55;;;;;;;3.88;2.03;;;;;;;17.96;88.90;94073.13;5133671;28;20566;-78
2021/06/15 05:42:22;;;;;;;4.85;2.28;;;;;;;20.04;78.72;94066.56;5133728;28;20284;-79
2021/06/15 05:44:49;;;;;;;7.22;1.90;;;;;;;21.87;68.66;94069.66;5133782;28;20200;-78
2021/06/15 05:47:17;;;;;;;2.22;1.42;;;;;;;23.68;62.95;94067.50;5133679;28;20736;-78
2021/06/15 05:49:44;;;;;;;4.22;1.50;;;;;;;25.10;57.83;94064.00;5133824;28;20291;-79
2021/06/15 05:52:13;;;;;;;2.70;1.27;;;;;;;26.26;53.29;94067.31;5133816;28;20201;-78
2021/06/15 05:54:42;;;;;;;4.85;1.33;;;;;;;27.14;49.65;94066.66;5133720;28;20200;-77
2021/06/15 05:57:09;;;;;;;2.38;1.10;;;;;;;28.03;47.28;94068.09;5133710;28;20200;-78
2021/06/15 05:59:36;;;;;;;3.42;1.23;;;;;;;28.52;45.50;94064.81;5132677;28;20544;-78
2021/06/15 06:02:12;;;;;;;2.60;1.17;;;;;;;28.75;45.17;94065.63;5133717;28;20283;-79
2021/06/15 06:04:49;;;;;;;1.88;0.93;;;;;;;29.08;45.04;94065.31;5133674;28;20216;-78
2021/06/15 06:10:09;;;;;;;3.28;1.30;;;;;;;29.26;44.17;94064.28;5133651;28;20199;-78
2021/06/15 06:12:35;;;;;;;2.55;1.10;;;;;;;29.38;44.68;94063.69;5133680;28;20634;-78
2021/06/15 06:15:05;;;;;;;2.08;1.30;;;;;;;29.03;44.84;94060.84;5133677;28;20287;-78
2021/06/15 06:17:33;;;;;;;2.65;1.23;;;;;;;28.38;46.15;94056.84;5133482;28;20223;-78
2021/06/15 06:19:59;;;;;;;3.33;1.10;;;;;;;28.22;46.97;94056.38;5133342;28;20727;-79
2021/06/15 06:22:26;;;;;;;3.38;1.27;;;;;;;27.44;48.75;94053.75;5133507;27;20559;-78
2021/06/15 06:24:58;;;;;;;2.42;1.05;;;;;;;27.39;49.17;94049.28;5133268;28;20228;-78
2021/06/15 06:27:26;;;;;;;2.10;1.40;;;;;;;26.53;51.57;94058.59;5133464;28;20232;-78
2021/06/15 06:29:52;;;;;;;2.42;1.00;;;;;;;25.80;54.75;94059.97;5133269;28;20220;-78
2021/06/15 06:32:30;;;;;;;2.65;1.10;;;;;;;24.90;58.10;94057.00;5133202;28;20197;-78
2021/06/15 06:35:01;;;;;;;4.18;1.10;;;;;;;24.66;58.82;94065.78;5133272;28;20647;-78
2021/06/15 06:37:28;;;;;;;3.50;1.70;;;;;;;24.42;59.47;94070.25;5133488;28;20551;-77
2021/06/15 06:40:03;;;;;;;2.35;1.05;;;;;;;24.42;57.42;94065.69;5133238;28;20208;-77
2021/06/15 06:42:31;;;;;;;3.40;1.33;;;;;;;24.39;58.11;94067.03;5133228;28;20193;-77
2021/06/15 06:44:58;;;;;;;2.78;1.40;;;;;;;23.94;57.04;94060.19;5134314;27;20200;-77
2021/06/15 06:47:25;;;;;;;4.80;1.30;;;;;;;23.82;63.73;94060.53;5137299;27;20200;-77
2021/06/15 06:49:51;;;;;;;2.55;1.20;;;;;;;24.36;61.15;94059.63;5136728;27;20232;-77
2021/06/15 06:52:18;;;;;;;4.22;1.30;;;;;;;24.06;57.20;94059.84;5137513;27;20193;-77
2021/06/15 06:54:44;;;;;;;1.70;1.20;;;;;;;23.83;56.01;94062.09;5136418;27;20189;-77
2021/06/15 06:57:11;;;;;;;2.95;1.00;;;;;;;24.36;56.49;94064.13;5136994;27;20200;-78
2021/06/15 06:59:39;;;;;;;2.78;1.20;;;;;;;24.51;48.97;94063.22;5136998;27;20205;-78
2021/06/15 07:02:05;;;;;;;2.58;1.20;;;;;;;24.28;50.31;94060.22;5136600;27;20193;-78
2021/06/15 07:04:32;;;;;;;2.55;1.20;;;;;;;24.53;53.97;94058.38;5136959;27;20200;-77
2021/06/15 07:07:00;;;;;;;3.22;1.17;;;;;;;24.34;47.14;94058.28;5136491;27;20280;-77
2021/06/15 07:09:26;;;;;;;2.55;1.20;;;;;;;23.81;45.00;94064.22;5136438;27;20254;-77
2021/06/15 07:11:53;;;;;;;2.55;1.10;;;;;;;23.47;46.40;94062.28;5136743;27;20207;-77
2021/06/15 07:14:19;;;;;;;2.25;1.08;;;;;;;23.40;47.47;94061.81;5135785;27;20204;-77
2021/06/15 07:16:47;;;;;;;1.25;1.00;;;;;;;23.25;46.40;94063.44;5136536;27;20278;-76
2021/06/15 07:19:13;;;;;;;5.20;1.40;;;;;;;23.16;47.46;94057.06;5136538;27;20201;-76
2021/06/15 07:21:40;;;;;;;2.67;1.30;;;;;;;23.07;52.02;94056.84;5136524;27;20203;-77
2021/06/15 07:24:07;;;;;;;3.63;1.30;;;;;;;23.32;62.68;94054.38;5135734;27;20426;-77
2021/06/15 07:26:34;;;;;;;3.42;1.40;;;;;;;23.35;60.13;94059.13;5136051;27;20201;-79
2021/06/15 07:29:01;;;;;;;5.93;1.73;;;;;;;23.22;65.91;94056.00;5136299;27;20263;-77
2021/06/15 07:31:29;;;;;;;4.45;1.77;;;;;;;23.18;62.48;94059.47;5136307;27;20201;-79
2021/06/15 07:33:57;;;;;;;4.78;1.90;;;;;;;23.19;68.65;94058.41;5136194;27;20193;-78
2021/06/15 07:36:24;;;;;;;2.03;1.40;;;;;;;23.24;64.59;94061.84;5136025;27;20291;-77
2021/06/15 07:38:52;;;;;;;5.00;1.80;;;;;;;23.04;64.48;94059.22;5135965;27;20201;-78
2021/06/15 07:41:21;;;;;;;3.00;1.77;;;;;;;22.91;62.04;94066.72;5135961;27;20204;-79
2021/06/15 07:43:48;;;;;;;2.88;1.80;;;;;;;22.65;57.81;94065.97;5136013;27;20205;-79
2021/06/15 07:46:15;;;;;;;3.08;1.73;;;;;;;22.70;60.53;94065.97;5123810;27;20197;-75
2021/06/15 07:48:42;;;;;;;5.80;2.22;;;;;;;22.63;59.37;94059.31;5115009;28;20236;-80
2021/06/15 07:51:12;;;;;;;6.32;1.83;;;;;;;22.60;60.35;94058.00;5115108;28;20225;-79
2021/06/15 07:53:44;;;;;;;6.00;1.77;;;;;;;22.61;60.64;94066.78;5115079;28;20207;-80
2021/06/15 07:56:12;;;;;;;3.22;1.58;;;;;;;22.60;58.29;94065.16;5115019;28;20288;-79
2021/06/15 07:58:41;;;;;;;7.78;1.88;;;;;;;22.63;58.60;94065.47;5115222;28;20266;-78
2021/06/15 08:01:08;;;;;;;3.95;1.80;;;;;;;22.64;57.62;94069.69;5114928;28;20209;-79
2021/06/15 08:03:35;;;;;;;3.50;1.73;;;;;;;22.82;58.49;94068.34;5114885;28;20201;-79
2021/06/15 08:06:02;;;;;;;2.65;1.80;;;;;;;22.78;56.78;94066.47;5120045;27;20193;-80
2021/06/15 08:08:30;;;;;;;3.75;1.85;;;;;;;22.71;53.35;94072.09;5135282;27;20224;-81
2021/06/15 08:10:57;;;;;;;3.05;1.65;;;;;;;22.68;54.65;94061.97;5135304;27;20655;-82
2021/06/15 08:13:24;;;;;;;3.47;1.60;;;;;;;22.78;54.87;94072.59;5135196;27;20283;-76
2021/06/15 08:15:51;;;;;;;10.75;1.92;;;;;;;22.96;55.07;94070.44;5134622;27;20236;-79
2021/06/15 08:18:20;;;;;;;4.25;1.50;;;;;;;22.81;51.95;94061.41;5135026;27;20236;-80
2021/06/15 08:20:51;;;;;;;9.90;2.10;;;;;;;22.83;55.13;94066.47;5135066;27;20232;-77
2021/06/15 08:23:18;;;;;;;5.60;2.00;;;;;;;23.05;57.10;94066.16;5135218;27;20203;-80
2021/06/15 08:25:46;;;;;;;5.60;1.60;;;;;;;23.06;55.85;94067.75;5135045;27;20230;-79
2021/06/15 08:28:13;;;;;;;4.72;1.73;;;;;;;23.17;54.24;94061.34;5134559;27;20207;-76
2021/06/15 08:30:41;;;;;;;6.80;1.67;;;;;;;23.30;53.05;94061.81;5134662;27;20232;-77
2021/06/15 08:33:08;;;;;;;3.33;1.50;;;;;;;23.44;51.84;94062.84;5134950;27;20279;-79
2021/06/15 08:35:35;;;;;;;4.93;1.30;;;;;;;23.39;50.67;94065.53;5135137;27;20193;-83
2021/06/15 08:38:02;;;;;;;8.50;1.63;;;;;;;23.50;54.78;94059.09;5134487;27;20279;-80
2021/06/15 08:40:28;;;;;;;3.05;1.33;;;;;;;23.60;50.87;94066.25;5134778;27;20566;-80
2021/06/15 08:42:59;;;;;;;2.10;1.20;;;;;;;23.43;47.03;94066.56;5134076;27;20199;-78
2021/06/15 08:45:28;;;;;;;4.22;1.40;;;;;;;23.58;50.81;94069.19;5134746;27;20211;-80
2021/06/15 08:47:55;;;;;;;3.60;1.40;;;;;;;23.60;47.09;94064.34;5134125;27;20448;-80
2021/06/15 08:50:25;;;;;;;2.13;1.30;;;;;;;23.52;49.12;94069.47;5134793;27;20490;-78
2021/06/15 08:52:52;;;;;;;2.88;1.40;;;;;;;23.54;47.50;94068.09;5134717;27;20196;-78
2021/06/15 08:55:20;;;;;;;6.07;1.50;;;;;;;23.46;48.31;94076.69;5133803;27;20670;-78
2021/06/15 08:58:14;;;;;;;4.35;1.40;;;;;;;23.45;47.37;94059.91;5134486;27;20228;-78
2021/06/15 09:00:46;;;;;;;4.55;1.38;;;;;;;23.37;48.97;94076.47;5134561;27;20205;-80
2021/06/15 09:03:14;;;;;;;4.97;1.55;;;;;;;23.42;49.90;94071.09;5134471;27;20227;-80
2021/06/15 09:05:49;;;;;;;2.58;1.45;;;;;;;23.41;47.20;94069.50;5134328;27;20291;-79
2021/06/15 09:08:18;;;;;;;4.45;1.80;;;;;;;23.39;50.88;94070.84;5133641;27;20287;-78
2021/06/15 09:10:47;;;;;;;2.28;1.55;;;;;;;23.48;50.63;94071.06;5133918;27;20315;-78
2021/06/15 09:13:36;;;;;;;4.82;1.30;;;;;;;23.51;49.46;94081.19;5134047;27;20203;-78
2021/06/15 09:16:20;;;;;;;4.28;1.60;;;;;;;23.46;48.26;94084.66;5134455;27;20224;-77
2021/06/15 09:18:47;;;;;;;4.28;1.55;;;;;;;23.53;48.94;94079.03;5134267;27;20204;-78
2021/06/15 09:21:37;;;;;;;2.38;1.70;;;;;;;23.58;49.11;94087.84;5133895;27;20572;-78
2021/06/15 09:24:05;;;;;;;5.38;1.50;;;;;;;23.73;48.12;94084.28;5133894;27;20287;-79
2021/06/15 09:26:56;;;;;;;3.80;1.50;;;;;;;23.78;48.75;94092.25;5133812;27;20655;-78
2021/06/15 09:29:35;;;;;;;5.43;1.73;;;;;;;23.75;48.58;94087.47;5132686;27;20216;-78
2021/06/15 09:32:06;;;;;;;3.03;1.58;;;;;;;23.87;49.51;94091.72;5134232;27;20208;-76
2021/06/15 09:34:36;;;;;;;5.18;1.80;;;;;;;24.01;50.65;94098.81;5133996;27;20219;-81
2021/06/15 09:37:06;;;;;;;3.88;1.60;;;;;;;24.12;47.80;94098.75;5134079;27;20224;-79
2021/06/15 09:39:34;;;;;;;4.07;2.00;;;;;;;23.93;50.31;94091.41;5133861;27;20211;-78
2021/06/15 09:42:01;;;;;;;3.60;1.50;;;;;;;23.89;47.32;94095.69;5133731;28;20249;-79
2021/06/15 09:44:31;;;;;;;4.82;1.73;;;;;;;23.73;46.81;94100.28;5134015;28;20295;-77
2021/06/15 09:47:00;;;;;;;2.85;1.42;;;;;;;23.82;48.18;94092.53;5133903;28;20223;-77
2021/06/15 09:49:30;;;;;;;2.25;1.65;;;;;;;24.07;48.83;94096.13;5133519;28;20319;-77
2021/06/15 09:52:14;;;;;;;3.72;1.48;;;;;;;24.13;46.26;94090.47;5133615;28;20192;-77
2021/06/15 09:54:42;;;;;;;4.40;1.38;;;;;;;24.31;45.99;94090.88;5133596;28;20220;-76
2021/06/15 09:57:19;;;;;;;3.55;1.08;;;;;;;24.27;44.84;94095.19;5133964;28;20284;-76
2021/06/15 10:00:17;;;;;;;4.90;1.65;;;;;;;24.24;45.01;94091.19;5133779;28;20227;-76
2021/06/15 10:02:48;;;;;;;5.93;1.42;;;;;;;24.15;46.52;94095.53;5090119;28;20198;-76
2021/06/15 10:05:31;;;;;;;2.47;1.20;;;;;;;24.41;45.55;94092.66;5125144;27;20193;-76
2021/06/15 10:08:00;;;;;;;4.50;1.42;;;;;;;24.50;48.00;94085.66;5113248;28;20201;-76
2021/06/15 10:10:31;;;;;;;2.78;1.45;;;;;;;24.56;44.02;94098.72;5112950;28;20282;-76
2021/06/15 10:12:58;;;;;;;2.25;1.38;;;;;;;24.70;45.58;94093.53;5113196;28;20292;-75
2021/06/15 10:15:27;;;;;;;2.17;1.20;;;;;;;24.86;46.75;94090.69;5112928;28;20202;-77
2021/06/15 10:17:54;;;;;;;2.70;1.35;;;;;;;24.53;44.04;94093.09;5113193;28;20198;-76
2021/06/15 10:20:24;;;;;;;5.20;1.30;;;;;;;24.51;46.48;94089.91;5116530;28;20197;-76
2021/06/15 10:22:51;;;;;;;3.25;1.35;;;;;;;24.65;44.32;94090.91;5116865;28;20197;-76
2021/06/15 10:25:20;;;;;;;6.53;1.42;;;;;;;24.62;44.09;94094.13;5116713;28;20252;-76
2021/06/15 10:27:49;;;;;;;3.42;1.42;;;;;;;24.88;46.41;94084.00;5116658;28;20653;-76
2021/06/15 10:30:18;;;;;;;4.90;1.67;;;;;;;24.87;46.91;94085.06;5116652;28;20235;-78
2021/06/15 10:32:54;;;;;;;2.40;1.40;;;;;;;24.71;44.13;94089.78;5116863;28;20206;-76
2021/06/15 10:35:45;;;;;;;5.60;1.48;;;;;;;24.59;45.37;94097.34;5116766;28;20204;-77
2021/06/15 10:38:13;;;;;;;1.77;1.20;;;;;;;24.78;44.61;94088.63;5116496;28;20246;-76
2021/06/15 10:40:50;;;;;;;2.05;1.30;;;;;;;24.85;45.68;94094.47;5116769;28;20193;-78
2021/06/15 10:43:27;;;;;;;6.00;1.58;;;;;;;24.79;46.25;94082.22;5116665;28;20201;-76
2021/06/15 10:45:58;;;;;;;3.63;1.40;;;;;;;25.15;49.39;94079.16;5116280;28;20682;-77
2021/06/15 10:48:43;;;;;;;5.40;1.40;;;;;;;25.15;43.61;94090.69;5116507;28;20225;-77
2021/06/15 10:51:27;;;;;;;4.05;1.70;;;;;;;25.24;47.11;94088.16;5114964;28;20225;-77
2021/06/15 10:54:01;;;;;;;2.42;1.30;;;;;;;25.55;45.00;94090.53;5115209;28;20455;-77
2021/06/15 10:56:31;;;;;;;2.35;1.30;;;;;;;25.41;47.29;94085.06;5116051;28;20209;-76
2021/06/15 10:59:11;;;;;;;7.95;1.75;;;;;;;25.52;47.32;94085.75;5116242;28;20204;-77
2021/06/15 11:01:42;;;;;;;4.25;1.63;;;;;;;25.74;44.54;94088.66;5119927;27;20224;-76
2021/06/15 11:04:13;;;;;;;4.40;1.58;;;;;;;25.76;48.89;94077.66;5116233;28;20197;-78
2021/06/15 11:06:46;;;;;;;3.33;1.55;;;;;;;26.02;48.92;94078.13;5126500;27;20196;-77
2021/06/15 11:09:16;;;;;;;5.93;1.75;;;;;;;25.92;48.54;94083.63;5136622;27;20197;-77
2021/06/15 11:11:44;;;;;;;4.55;1.45;;;;;;;25.87;44.04;94081.78;5136608;27;20243;-76
2021/06/15 11:14:20;;;;;;;1.70;1.20;;;;;;;26.08;48.36;94079.66;5136486;27;20205;-76
2021/06/15 11:16:48;;;;;;;4.75;1.20;;;;;;;26.02;43.65;94078.94;5136580;27;20200;-77
2021/06/15 11:19:35;;;;;;;3.58;1.55;;;;;;;26.06;43.77;94086.38;5136403;27;20196;-76
2021/06/15 11:22:10;;;;;;;4.63;1.65;;;;;;;25.95;43.21;94094.56;5136108;27;20650;-77
2021/06/15 11:24:47;;;;;;;6.47;1.30;;;;;;;26.06;47.27;94084.50;5136188;27;20235;-77
2021/06/15 11:27:19;;;;;;;3.20;1.20;;;;;;;26.14;42.38;94085.72;5136383;27;20210;-77
2021/06/15 11:29:47;;;;;;;1.88;1.20;;;;;;;26.20;45.98;94084.56;5136065;27;20224;-77
2021/06/15 11:32:21;;;;;;;3.03;1.38;;;;;;;25.94;42.63;94086.78;5135355;27;20540;-77
2021/06/15 11:35:21;;;;;;;3.85;1.35;;;;;;;25.77;42.34;94084.63;5136192;27;20476;-76
2021/06/15 11:37:52;;;;;;;3.38;1.30;;;;;;;25.69;39.83;94094.06;5136165;27;20642;-76
2021/06/15 11:40:30;;;;;;;2.50;1.02;;;;;;;26.04;43.27;94081.31;5136243;27;20253;-76
2021/06/15 11:43:17;;;;;;;2.45;1.15;;;;;;;26.38;40.02;94085.63;5135403;27;20204;-77
2021/06/15 11:45:45;;;;;;;5.47;1.13;;;;;;;26.56;37.15;94090.16;5135930;27;20702;-78
2021/06/15 11:48:29;;;;;;;3.65;1.30;;;;;;;26.45;36.03;94091.41;5135938;27;20197;-76